Terminal Aerodrome Forecast
Issued by NWS Blacksburg, VA

Home | Current Version | Previous Version | Text Only | Print | Product List | Glossary On
Versions: 1 2 3 4 5 6 7 8 9 10 11
000
FTUS41 KRNK 122322
TAFLYH
TAF
KLYH 122322Z 1300/1324 30011KT P6SM VCSH SCT060 BKN120
     FM130200 29010G21KT P6SM BKN050
     FM131300 28010KT P6SM SCT250
     FM132000 24008KT P6SM FEW200=

USA.gov is the U.S. government's official web portal to all federal, state and local government web resources and services.